createdAt,value
2019-03-01T00:02:47.290Z,10.50
2019-03-01T00:13:15.927Z,11.67
2019-03-01T00:23:40.009Z,10.10
2019-03-01T00:34:07.903Z,8.57
2019-03-01T00:44:18.527Z,7.50
2019-03-01T00:54:19.572Z,7.40
2019-03-01T01:04:20.633Z,6.20
2019-03-01T01:14:21.621Z,6.93
2019-03-01T01:24:22.416Z,6.93
2019-03-01T01:34:23.153Z,7.00
2019-03-01T01:44:24.336Z,6.87
2019-03-01T01:54:26.032Z,6.80
2019-03-01T02:04:26.986Z,4.60
2019-03-01T02:14:27.684Z,5.00
2019-03-01T02:24:28.637Z,4.47
2019-03-01T02:34:29.611Z,3.80
2019-03-01T02:44:30.629Z,3.13
2019-03-01T02:54:31.613Z,3.10
2019-03-01T03:04:32.754Z,3.90
2019-03-01T03:14:33.458Z,3.60
2019-03-01T03:24:35.344Z,3.53
2019-03-01T03:34:36.080Z,3.50
2019-03-01T03:44:37.083Z,3.77
2019-03-01T03:54:37.813Z,3.67
2019-03-01T04:04:38.475Z,2.60
2019-03-01T04:14:39.242Z,3.33
2019-03-01T04:24:40.226Z,2.40
2019-03-01T04:34:41.225Z,2.43
2019-03-01T04:44:41.944Z,2.80
2019-03-01T04:54:45.449Z,2.43
2019-03-01T05:04:52.792Z,3.10
2019-03-01T05:15:05.675Z,2.67
2019-03-01T05:25:19.897Z,2.53
2019-03-01T05:35:16.540Z,3.00
2019-03-01T05:45:26.202Z,2.80
2019-03-01T05:55:27.154Z,3.27
2019-03-01T06:05:27.980Z,3.00
2019-03-01T06:15:48.078Z,3.40
2019-03-01T06:26:09.230Z,3.90
2019-03-01T06:36:22.771Z,3.93
2019-03-01T06:46:39.285Z,4.50
2019-03-01T06:56:40.037Z,5.23
2019-03-01T07:06:40.874Z,5.03
2019-03-01T07:16:41.505Z,4.30
2019-03-01T07:26:43.920Z,4.47
2019-03-01T07:36:44.969Z,6.47
2019-03-01T07:46:53.220Z,6.67
2019-03-01T07:56:53.484Z,4.63
2019-03-01T08:06:54.646Z,4.77
2019-03-01T08:16:56.057Z,5.50
2019-03-01T08:26:59.198Z,6.10
2019-03-01T08:37:02.470Z,5.87
2019-03-01T08:47:06.930Z,6.40
2019-03-01T08:57:07.700Z,7.37
2019-03-01T09:07:08.640Z,5.80
2019-03-01T09:17:09.633Z,3.57
2019-03-01T09:27:10.476Z,2.80
2019-03-01T09:37:11.466Z,4.30
2019-03-01T09:47:12.462Z,6.07
2019-03-01T09:57:15.614Z,8.53
2019-03-01T10:07:16.084Z,8.13
2019-03-01T10:17:16.841Z,11.33
2019-03-01T10:27:17.746Z,10.80
2019-03-01T10:37:18.755Z,13.23
2019-03-01T10:47:19.999Z,16.43
2019-03-01T10:57:20.706Z,17.00
2019-03-01T11:07:21.616Z,22.10
2019-03-01T11:17:22.290Z,22.77
2019-03-01T11:27:23.168Z,27.20
2019-03-01T11:37:24.068Z,29.83
2019-03-01T11:47:25.643Z,34.40
2019-03-01T11:57:26.322Z,38.10
2019-03-01T12:07:27.052Z,44.47
2019-03-01T12:17:27.807Z,47.73
2019-03-01T12:27:28.735Z,51.87
2019-03-01T12:37:29.408Z,57.20
2019-03-01T12:47:30.144Z,63.17
2019-03-01T12:57:30.812Z,63.17
2019-03-01T13:07:31.638Z,60.67
2019-03-01T13:17:33.758Z,53.53
2019-03-01T13:27:39.448Z,51.77
2019-03-01T13:37:40.119Z,49.10
2019-03-01T13:47:43.947Z,51.23
2019-03-01T13:57:46.003Z,53.07
2019-03-01T14:07:55.127Z,47.60
2019-03-01T14:17:51.894Z,43.80
2019-03-01T14:27:56.582Z,35.27
2019-03-01T14:38:00.503Z,31.93
2019-03-01T14:48:01.234Z,31.13
2019-03-01T14:58:31.026Z,34.93
2019-03-01T15:08:31.860Z,33.17
2019-03-01T15:29:14.486Z,34.30
2019-03-01T15:39:16.673Z,32.73
2019-03-01T15:49:23.721Z,34.20
2019-03-01T15:59:28.316Z,35.37
2019-03-01T16:09:29.337Z,34.87
2019-03-01T16:19:50.430Z,37.07
2019-03-01T16:29:51.090Z,37.10
2019-03-01T16:39:56.155Z,40.40
2019-03-01T16:49:58.939Z,37.90
2019-03-01T16:59:59.839Z,35.20
2019-03-01T17:10:00.556Z,34.40
2019-03-01T17:20:07.313Z,32.07
2019-03-01T17:30:17.839Z,28.40
2019-03-01T17:40:19.069Z,27.00
2019-03-01T17:50:19.763Z,24.30
2019-03-01T18:00:26.662Z,32.50
2019-03-01T18:10:28.726Z,21.30
2019-03-01T18:20:30.316Z,22.33
2019-03-01T18:30:32.655Z,20.07
2019-03-01T18:40:33.591Z,25.10
2019-03-01T18:50:38.410Z,25.03
2019-03-01T19:00:41.650Z,24.53
2019-03-01T19:10:42.347Z,28.10
2019-03-01T19:20:46.925Z,24.43
2019-03-01T19:30:49.045Z,20.83
2019-03-01T19:40:50.279Z,20.03
2019-03-01T19:50:50.985Z,19.87
2019-03-01T20:00:51.635Z,21.23
2019-03-01T20:10:52.529Z,20.20
2019-03-01T20:20:53.413Z,20.73
2019-03-01T20:30:54.099Z,22.97
2019-03-01T20:40:54.848Z,22.93
2019-03-01T20:50:55.766Z,24.13
2019-03-01T21:00:58.829Z,24.57
2019-03-01T21:11:00.309Z,24.90
2019-03-01T21:21:01.004Z,24.23
2019-03-01T21:31:02.037Z,23.30
2019-03-01T21:41:02.764Z,23.63
2019-03-01T21:51:03.670Z,24.50
2019-03-01T22:01:05.824Z,23.70
2019-03-01T22:11:06.935Z,23.87
2019-03-01T22:21:33.998Z,24.33
2019-03-01T22:31:35.463Z,25.30
2019-03-01T22:41:39.326Z,26.27
2019-03-01T22:51:39.301Z,29.07
2019-03-01T23:01:40.246Z,24.80
2019-03-01T23:11:41.259Z,25.93
2019-03-01T23:21:42.037Z,23.00
2019-03-01T23:31:43.021Z,22.50
2019-03-01T23:41:46.394Z,23.73
2019-03-01T23:51:47.055Z,24.77
